Time;durP1;ratioP1;P1;durP2;ratioP2;P2;SDS_P1;SDS_P2;PMS_P1;PMS_P2;Temp;Humidity;BMP_temperature;BMP_pressure;BME280_temperature;BME280_humidity;BME280_pressure;Samples;Min_cycle;Max_cycle;Signal;HPM_P1;HPM_P2
2023/08/16 00:00:54;;;;;;;3.07;2.13;;;;;;;24.45;77.30;100453.50;5107796;28;20812;-61
2023/08/16 00:03:20;;;;;;;2.53;1.87;;;;;;;24.44;77.27;100449.78;5093947;28;20231;-62
2023/08/16 00:05:45;;;;;;;3.23;1.70;;;;;;;24.44;77.46;100454.75;5087595;28;20212;-61
2023/08/16 00:08:11;;;;;;;2.83;2.00;;;;;;;24.44;77.74;100440.31;5091240;28;20689;-61
2023/08/16 00:10:37;;;;;;;2.00;1.40;;;;;;;24.44;77.88;100446.88;5115662;27;20226;-62
2023/08/16 00:13:02;;;;;;;2.80;1.80;;;;;;;24.44;77.50;100441.13;5118790;27;20186;-62
2023/08/16 00:15:27;;;;;;;3.50;1.67;;;;;;;24.43;77.50;100439.47;5090109;28;20205;-62
2023/08/16 00:17:53;;;;;;;4.00;1.80;;;;;;;24.44;77.24;100435.34;5074109;28;20347;-61
2023/08/16 00:20:20;;;;;;;2.57;1.70;;;;;;;24.43;77.51;100433.69;5103782;28;20178;-62
2023/08/16 00:22:45;;;;;;;3.17;1.87;;;;;;;24.43;77.14;100430.81;5110389;28;20158;-62
2023/08/16 00:25:11;;;;;;;2.40;1.60;;;;;;;24.44;77.69;100428.75;5123132;27;20422;-62
2023/08/16 00:27:36;;;;;;;2.43;1.73;;;;;;;24.42;77.67;100419.69;5107817;27;20212;-62
2023/08/16 00:30:02;;;;;;;2.37;1.60;;;;;;;24.44;77.24;100429.56;5073858;28;20629;-62
2023/08/16 00:32:28;;;;;;;2.90;2.00;;;;;;;24.43;77.51;100416.38;5089770;28;20265;-62
2023/08/16 00:34:53;;;;;;;2.70;1.73;;;;;;;24.44;77.76;100423.00;5089574;28;20450;-61
2023/08/16 00:37:19;;;;;;;2.80;1.90;;;;;;;24.43;77.53;100409.81;5106290;28;20236;-62
2023/08/16 00:39:44;;;;;;;2.63;1.53;;;;;;;24.43;77.41;100410.63;5089395;28;20193;-62
2023/08/16 00:42:10;;;;;;;3.07;1.83;;;;;;;24.42;77.66;100406.09;5089786;28;20519;-61
2023/08/16 00:44:36;;;;;;;3.07;1.93;;;;;;;24.42;77.43;100417.63;5092190;28;20196;-62
2023/08/16 00:47:01;;;;;;;2.97;1.83;;;;;;;24.42;77.74;100419.69;5124439;27;20881;-62
2023/08/16 00:49:27;;;;;;;2.97;1.80;;;;;;;24.43;77.32;100418.47;5097379;28;20201;-62
2023/08/16 00:51:52;;;;;;;2.83;1.80;;;;;;;24.42;77.34;100414.75;5090394;28;20174;-62
2023/08/16 00:54:17;;;;;;;3.00;1.67;;;;;;;24.43;77.37;100409.81;5107024;28;20173;-62
2023/08/16 00:56:43;;;;;;;2.70;1.90;;;;;;;24.43;77.80;100409.81;5090389;28;20258;-62
2023/08/16 00:59:08;;;;;;;3.13;2.07;;;;;;;24.41;77.53;100404.44;5088073;28;20185;-62
2023/08/16 01:01:34;;;;;;;3.03;2.00;;;;;;;24.42;77.39;100400.31;5070275;28;20170;-62
2023/08/16 01:03:59;;;;;;;2.73;1.70;;;;;;;24.42;77.14;100405.25;5091724;28;20191;-62
2023/08/16 01:06:25;;;;;;;3.57;2.10;;;;;;;24.41;77.60;100398.69;5070544;28;20178;-62
2023/08/16 01:08:50;;;;;;;3.03;1.50;;;;;;;24.42;77.54;100396.59;5070724;28;20252;-62
2023/08/16 01:11:23;;;;;;;5.57;2.37;;;;;;;24.41;77.49;100383.41;5091206;28;20232;-62
2023/08/16 01:14:17;;;;;;;3.83;1.70;;;;;;;24.40;77.53;100376.84;5109458;28;20610;-63
2023/08/16 01:16:42;;;;;;;2.63;2.00;;;;;;;24.41;77.50;100384.25;5102832;28;20450;-62
2023/08/16 01:19:10;;;;;;;2.80;2.00;;;;;;;24.41;77.50;100386.28;5071999;28;20404;-62
2023/08/16 01:21:39;;;;;;;2.97;1.87;;;;;;;24.41;77.13;100398.69;5109084;28;20177;-62
2023/08/16 01:24:06;;;;;;;3.10;1.50;;;;;;;24.41;77.44;100400.72;5063023;28;20439;-62
2023/08/16 01:26:35;;;;;;;3.57;1.97;;;;;;;24.41;77.37;100394.94;5109031;28;20421;-63
2023/08/16 01:29:01;;;;;;;4.10;2.30;;;;;;;24.40;77.25;100399.91;5092507;27;20426;-62
2023/08/16 01:31:26;;;;;;;2.90;1.93;;;;;;;24.40;77.36;100402.81;5123712;27;20410;-62
2023/08/16 01:33:52;;;;;;;2.70;1.80;;;;;;;24.40;77.68;100402.81;5090514;28;20470;-62
2023/08/16 01:36:17;;;;;;;2.50;1.73;;;;;;;24.40;77.44;100397.03;5070782;28;20178;-61
2023/08/16 01:38:43;;;;;;;3.03;2.20;;;;;;;24.40;77.22;100408.59;5089224;28;20182;-62
2023/08/16 01:41:13;;;;;;;2.60;1.60;;;;;;;24.41;77.56;100407.34;5086338;28;20174;-61
2023/08/16 01:43:38;;;;;;;3.73;2.37;;;;;;;24.39;77.31;100406.91;5069665;28;20194;-61
2023/08/16 01:46:04;;;;;;;2.60;1.93;;;;;;;24.40;77.58;100416.41;5067904;28;20428;-61
2023/08/16 01:48:29;;;;;;;2.30;1.60;;;;;;;24.40;77.22;100411.47;5104221;28;20201;-62
2023/08/16 01:50:55;;;;;;;3.00;2.00;;;;;;;24.40;77.51;100411.47;5106347;28;20190;-61
2023/08/16 01:53:20;;;;;;;2.50;1.57;;;;;;;24.40;77.33;100401.97;5103517;28;20691;-62
2023/08/16 01:55:46;;;;;;;2.50;1.90;;;;;;;24.40;77.52;100401.97;5107496;28;20177;-62
2023/08/16 01:58:12;;;;;;;3.43;2.30;;;;;;;24.40;77.59;100404.84;5100448;28;20187;-62
2023/08/16 02:00:38;;;;;;;3.77;2.10;;;;;;;24.40;77.45;100399.91;5069288;28;20558;-61
2023/08/16 02:03:03;;;;;;;3.57;1.93;;;;;;;24.39;77.25;100412.69;5098861;28;20162;-61
2023/08/16 02:05:29;;;;;;;2.83;1.90;;;;;;;24.40;77.20;100413.53;5108303;28;20177;-62
2023/08/16 02:07:54;;;;;;;2.67;1.70;;;;;;;24.38;77.31;100413.94;5094584;28;20213;-62
2023/08/16 02:10:20;;;;;;;3.00;1.93;;;;;;;24.39;77.32;100432.09;5088403;28;20166;-62
2023/08/16 02:12:45;;;;;;;3.00;2.10;;;;;;;24.38;77.53;100454.34;5090256;28;20178;-61
2023/08/16 02:15:11;;;;;;;3.47;2.30;;;;;;;24.38;77.51;100486.09;5088325;28;20537;-62
2023/08/16 02:17:36;;;;;;;3.20;1.63;;;;;;;24.37;76.43;100513.31;5093422;28;20306;-61
2023/08/16 02:20:02;;;;;;;6.33;2.20;;;;;;;24.36;76.31;100548.34;5078612;28;20205;-61
2023/08/16 02:22:28;;;;;;;3.40;2.00;;;;;;;24.33;77.02;100532.69;5100002;28;20256;-62
2023/08/16 02:24:53;;;;;;;4.10;2.63;;;;;;;24.32;76.58;100530.22;5070483;28;20511;-62
2023/08/16 02:27:19;;;;;;;3.90;2.30;;;;;;;24.30;76.46;100533.53;5067969;28;20202;-61
2023/08/16 02:29:44;;;;;;;4.23;2.00;;;;;;;24.31;76.44;100540.09;5070476;28;20190;-62
2023/08/16 02:32:09;;;;;;;6.03;2.70;;;;;;;24.31;76.64;100545.88;5068130;28;20821;-62
2023/08/16 02:34:35;;;;;;;4.20;2.53;;;;;;;24.32;76.46;100542.59;5067856;28;20825;-62
2023/08/16 02:37:00;;;;;;;3.00;2.27;;;;;;;24.31;76.72;100543.84;5076889;28;20185;-62
2023/08/16 02:39:26;;;;;;;3.73;2.77;;;;;;;24.31;76.50;100549.59;5076955;28;20188;-61
2023/08/16 02:41:53;;;;;;;3.67;2.10;;;;;;;24.31;76.63;100538.06;5096936;28;20186;-61
2023/08/16 02:44:19;;;;;;;3.00;2.13;;;;;;;24.32;76.26;100535.97;5086849;28;20178;-62
2023/08/16 02:46:44;;;;;;;2.67;2.13;;;;;;;24.33;77.03;100523.22;5086810;28;20467;-61
2023/08/16 02:49:10;;;;;;;3.07;2.00;;;;;;;24.33;77.46;100524.03;5078770;28;20218;-61
2023/08/16 02:51:35;;;;;;;3.10;2.10;;;;;;;24.35;77.12;100526.50;5103588;28;20303;-61
2023/08/16 02:54:00;;;;;;;2.83;2.03;;;;;;;24.35;77.25;100521.56;5111281;28;20173;-62
2023/08/16 02:56:26;;;;;;;3.43;2.47;;;;;;;24.35;77.42;100514.97;5065363;28;20186;-62
2023/08/16 02:58:51;;;;;;;3.07;2.17;;;;;;;24.35;77.37;100501.38;5111248;28;20177;-61
2023/08/16 03:01:17;;;;;;;4.10;2.23;;;;;;;24.35;77.31;100495.59;5109141;28;20185;-61
2023/08/16 03:03:42;;;;;;;4.60;2.40;;;;;;;24.35;77.35;100492.72;5070674;28;20178;-62
2023/08/16 03:06:08;;;;;;;3.23;2.20;;;;;;;24.35;77.27;100495.59;5091471;28;20174;-61
2023/08/16 03:08:33;;;;;;;4.23;2.50;;;;;;;24.34;77.51;100485.25;5081490;28;20218;-62
2023/08/16 03:10:59;;;;;;;4.03;2.50;;;;;;;24.35;77.33;100488.97;5071248;28;20179;-63
2023/08/16 03:13:24;;;;;;;5.93;2.40;;;;;;;24.36;77.01;100481.97;5071050;28;20244;-62
2023/08/16 03:15:50;;;;;;;4.33;2.37;;;;;;;24.36;77.19;100476.19;5089503;28;20178;-62
2023/08/16 03:18:15;;;;;;;4.17;2.53;;;;;;;24.34;76.70;100465.06;5094026;28;20226;-62
2023/08/16 03:20:40;;;;;;;4.40;3.10;;;;;;;24.35;77.40;100460.13;5100255;28;20185;-62
2023/08/16 03:23:06;;;;;;;5.63;2.53;;;;;;;24.35;77.46;100454.34;5111384;28;20158;-61
2023/08/16 03:25:31;;;;;;;3.37;2.40;;;;;;;24.34;77.16;100459.28;5109289;28;20174;-62
2023/08/16 03:27:57;;;;;;;4.17;2.50;;;;;;;24.36;77.39;100450.22;5111032;27;20274;-61
2023/08/16 03:30:23;;;;;;;4.13;2.63;;;;;;;24.34;77.15;100439.09;5125728;27;20189;-61
2023/08/16 03:32:48;;;;;;;3.53;2.40;;;;;;;24.33;77.38;100417.25;5110171;28;20307;-61
2023/08/16 03:35:14;;;;;;;2.93;2.07;;;;;;;24.33;77.00;100384.69;5105749;28;20190;-61
2023/08/16 03:37:39;;;;;;;3.80;2.50;;;;;;;24.34;77.16;100364.06;5090006;28;20171;-61
2023/08/16 03:40:06;;;;;;;3.57;2.00;;;;;;;24.33;77.02;100368.19;5089900;28;20576;-62
2023/08/16 03:42:31;;;;;;;4.20;2.60;;;;;;;24.33;77.32;100364.50;5091810;28;20175;-62
2023/08/16 03:44:57;;;;;;;3.47;2.27;;;;;;;24.32;77.18;100363.66;5089061;28;20526;-62
2023/08/16 03:47:22;;;;;;;3.20;2.57;;;;;;;24.33;77.55;100373.97;5091289;28;20217;-62
2023/08/16 03:49:48;;;;;;;3.80;2.43;;;;;;;24.33;77.36;100376.84;5071197;28;20903;-61
2023/08/16 03:52:13;;;;;;;3.40;2.20;;;;;;;24.33;77.33;100376.84;5109447;28;20181;-61
2023/08/16 03:54:39;;;;;;;4.53;2.80;;;;;;;24.33;77.14;100371.06;5110270;28;20505;-62
2023/08/16 03:57:04;;;;;;;4.43;2.30;;;;;;;24.34;77.26;100375.59;5080021;28;20575;-61
2023/08/16 03:59:30;;;;;;;5.27;2.23;;;;;;;24.33;77.50;100362.41;5090420;28;20212;-61
2023/08/16 04:01:56;;;;;;;4.07;2.80;;;;;;;24.32;77.03;100355.00;5092512;28;20206;-61
2023/08/16 04:04:21;;;;;;;3.03;2.27;;;;;;;24.33;77.04;100347.19;5090412;28;20232;-61
2023/08/16 04:06:47;;;;;;;3.80;2.20;;;;;;;24.32;77.61;100337.69;5101789;28;20238;-62
2023/08/16 04:09:13;;;;;;;2.97;2.10;;;;;;;24.32;77.18;100323.25;5110478;28;20251;-62
2023/08/16 04:11:39;;;;;;;3.60;2.60;;;;;;;24.33;77.51;100335.63;5096898;27;20672;-62
2023/08/16 04:14:04;;;;;;;3.87;2.23;;;;;;;24.32;77.42;100334.81;5122941;27;20431;-62
2023/08/16 04:16:30;;;;;;;4.80;2.60;;;;;;;24.32;77.48;100337.69;5114079;27;20188;-61
2023/08/16 04:18:55;;;;;;;4.03;2.20;;;;;;;24.31;77.40;100350.47;5110333;28;20249;-62
2023/08/16 04:21:21;;;;;;;3.03;2.30;;;;;;;24.31;77.30;100356.25;5102447;28;20181;-62
2023/08/16 04:23:46;;;;;;;2.93;2.03;;;;;;;24.31;77.40;100367.78;5110409;28;20162;-62
2023/08/16 04:26:12;;;;;;;3.47;2.37;;;;;;;24.31;77.30;100369.84;5110443;28;20169;-62
2023/08/16 04:28:37;;;;;;;4.87;2.33;;;;;;;24.31;77.31;100362.03;5109714;28;20251;-61
2023/08/16 04:31:04;;;;;;;2.50;2.00;;;;;;;24.31;77.71;100361.19;5098992;28;20183;-62
2023/08/16 04:33:30;;;;;;;3.33;2.60;;;;;;;24.31;77.13;100376.44;5086524;28;20179;-61
2023/08/16 04:35:55;;;;;;;2.60;2.27;;;;;;;24.31;77.25;100370.69;5088304;28;21149;-61
2023/08/16 04:38:20;;;;;;;4.17;2.77;;;;;;;24.31;77.52;100369.84;5087637;28;20226;-62
2023/08/16 04:40:49;;;;;;;4.70;2.27;;;;;;;24.31;77.39;100364.06;5124049;27;20188;-62
2023/08/16 04:43:15;;;;;;;3.23;2.20;;;;;;;24.31;77.22;100372.72;5096596;27;20183;-61
2023/08/16 04:45:40;;;;;;;4.40;2.50;;;;;;;24.31;77.48;100367.78;5094500;28;20443;-61
2023/08/16 04:48:06;;;;;;;3.10;2.40;;;;;;;24.30;77.61;100376.88;5106346;28;20194;-62
2023/08/16 04:50:31;;;;;;;3.70;2.33;;;;;;;24.30;77.29;100380.59;5095082;28;20621;-62
2023/08/16 04:52:56;;;;;;;3.07;2.50;;;;;;;24.31;77.50;100381.38;5110003;27;20165;-62
2023/08/16 04:55:22;;;;;;;4.40;3.40;;;;;;;24.30;77.04;100391.28;5116018;27;20227;-62
2023/08/16 04:57:48;;;;;;;3.87;2.50;;;;;;;24.29;77.59;100381.81;5118500;27;20241;-61
2023/08/16 05:00:13;;;;;;;3.13;2.47;;;;;;;24.29;77.37;100387.56;5102627;28;20189;-62
2023/08/16 05:02:39;;;;;;;4.50;2.50;;;;;;;24.30;77.28;100389.25;5089414;28;20163;-62
2023/08/16 05:05:05;;;;;;;4.03;2.53;;;;;;;24.31;77.38;100413.13;5090110;28;20194;-62
2023/08/16 05:07:30;;;;;;;4.30;2.40;;;;;;;24.30;77.63;100411.50;5106073;28;20652;-62
2023/08/16 05:09:56;;;;;;;3.70;2.60;;;;;;;24.29;77.25;100407.78;5108883;27;20420;-62
2023/08/16 05:12:21;;;;;;;3.37;2.53;;;;;;;24.28;77.69;100409.03;5092536;28;20201;-62
2023/08/16 05:14:47;;;;;;;3.40;2.50;;;;;;;24.29;77.35;100422.19;5089219;28;20168;-62
2023/08/16 05:17:12;;;;;;;3.23;2.13;;;;;;;24.30;77.34;100437.47;5091245;28;20233;-62
2023/08/16 05:19:37;;;;;;;4.50;2.60;;;;;;;24.29;77.65;100448.16;5089877;28;20209;-61
2023/08/16 05:22:03;;;;;;;4.60;2.40;;;;;;;24.29;77.26;100445.28;5111654;28;20185;-60
2023/08/16 05:24:28;;;;;;;4.20;2.33;;;;;;;24.29;77.47;100451.06;5094554;27;20253;-61
2023/08/16 05:26:54;;;;;;;6.70;2.67;;;;;;;24.30;77.31;100449.84;5123941;27;20216;-62
2023/08/16 05:29:19;;;;;;;3.90;2.73;;;;;;;24.30;77.52;100454.78;5114217;27;20181;-61
2023/08/16 05:31:45;;;;;;;3.20;2.37;;;;;;;24.29;77.30;100442.41;5108482;28;20162;-62
2023/08/16 05:34:10;;;;;;;5.13;3.03;;;;;;;24.30;77.41;100446.13;5106992;28;20173;-61
2023/08/16 05:36:45;;;;;;;3.80;2.50;;;;;;;24.29;77.78;100453.94;5090232;28;20179;-62
2023/08/16 05:39:10;;;;;;;3.83;2.40;;;;;;;24.30;77.41;100461.38;5069381;28;20222;-62
2023/08/16 05:41:35;;;;;;;3.53;2.37;;;;;;;24.30;77.49;100464.28;5087479;28;20784;-62
2023/08/16 05:44:01;;;;;;;4.23;2.50;;;;;;;24.29;77.53;100462.59;5090703;28;20599;-62
2023/08/16 05:46:26;;;;;;;3.97;2.57;;;;;;;24.29;77.33;100477.03;5088528;28;20691;-61
2023/08/16 05:48:52;;;;;;;5.27;2.00;;;;;;;24.29;77.21;100474.16;5069901;28;20210;-62
2023/08/16 05:51:17;;;;;;;3.10;2.30;;;;;;;24.28;77.30;100478.28;5101782;28;20174;-63
2023/08/16 05:53:43;;;;;;;3.10;2.00;;;;;;;24.29;77.53;100482.00;5101910;28;20617;-61
2023/08/16 05:56:08;;;;;;;5.57;2.80;;;;;;;24.30;77.35;100490.25;5105512;28;20177;-62
2023/08/16 05:58:34;;;;;;;3.30;2.53;;;;;;;24.29;77.19;100488.56;5106544;28;20205;-62
2023/08/16 06:00:59;;;;;;;4.50;2.50;;;;;;;24.28;77.28;100489.81;5070797;28;20240;-62
2023/08/16 06:03:24;;;;;;;3.20;2.30;;;;;;;24.29;77.68;100487.78;5088294;28;20192;-62
2023/08/16 06:05:50;;;;;;;3.63;2.60;;;;;;;24.29;77.54;100482.81;5080923;28;20181;-62
2023/08/16 06:08:16;;;;;;;3.07;2.30;;;;;;;24.29;77.47;100494.34;5124819;28;20208;-62
2023/08/16 06:10:41;;;;;;;4.63;2.50;;;;;;;24.29;77.29;100491.47;5121873;28;20232;-61
2023/08/16 06:13:06;;;;;;;4.13;2.43;;;;;;;24.29;77.14;100497.22;5089262;28;20185;-61
2023/08/16 06:15:32;;;;;;;4.40;2.77;;;;;;;24.30;77.36;100492.28;5102768;28;20189;-61
2023/08/16 06:17:57;;;;;;;2.63;2.10;;;;;;;24.28;77.39;100492.69;5103919;28;20224;-62
2023/08/16 06:20:23;;;;;;;3.80;2.83;;;;;;;24.28;77.53;100486.94;5079665;28;20181;-61
2023/08/16 06:22:48;;;;;;;4.57;3.00;;;;;;;24.30;77.61;100492.28;5105642;28;20211;-61
2023/08/16 06:25:14;;;;;;;3.43;2.40;;;;;;;24.30;77.66;100489.41;5111541;28;20181;-62
2023/08/16 06:27:40;;;;;;;4.60;2.60;;;;;;;24.30;77.25;100490.25;5109619;28;20209;-61
2023/08/16 06:30:06;;;;;;;3.80;2.93;;;;;;;24.30;77.28;100493.13;5093007;28;20212;-64
2023/08/16 06:32:31;;;;;;;4.83;3.00;;;;;;;24.30;77.03;100493.13;5090898;28;20549;-63
2023/08/16 06:34:57;;;;;;;6.50;2.73;;;;;;;24.29;77.35;100497.22;5090883;28;20465;-62
2023/08/16 06:37:23;;;;;;;5.60;2.80;;;;;;;24.30;77.38;100496.00;5093608;28;20235;-62
2023/08/16 06:39:48;;;;;;;4.30;2.70;;;;;;;24.29;77.76;100491.47;5108660;28;20454;-63
2023/08/16 06:42:14;;;;;;;3.30;2.33;;;;;;;24.29;77.58;100488.56;5112442;28;20166;-63
2023/08/16 06:44:39;;;;;;;3.93;2.50;;;;;;;24.29;77.56;100485.69;5112241;28;20186;-63
2023/08/16 06:47:05;;;;;;;3.97;2.80;;;;;;;24.29;77.58;100479.91;5100044;28;20265;-61
2023/08/16 06:49:30;;;;;;;3.50;2.63;;;;;;;24.30;77.60;100484.47;5104304;27;20243;-63
2023/08/16 06:51:56;;;;;;;3.70;2.70;;;;;;;24.29;77.53;100477.03;5111859;28;20173;-63
2023/08/16 06:54:22;;;;;;;3.67;3.00;;;;;;;24.30;77.86;100480.75;5109559;28;20165;-63
2023/08/16 06:56:49;;;;;;;3.87;2.70;;;;;;;24.29;77.76;100479.13;5095135;28;20178;-63
2023/08/16 06:59:14;;;;;;;3.60;2.57;;;;;;;24.30;77.71;100484.47;5094300;28;20240;-63
2023/08/16 07:01:40;;;;;;;4.10;2.80;;;;;;;24.30;77.85;100484.47;5091407;28;20404;-63
2023/08/16 07:04:05;;;;;;;4.13;2.83;;;;;;;24.29;77.85;100488.56;5075467;28;20186;-63
2023/08/16 07:06:31;;;;;;;4.60;3.10;;;;;;;24.29;77.71;100485.69;5091626;28;20178;-63
2023/08/16 07:08:58;;;;;;;3.63;2.93;;;;;;;24.31;77.55;100493.94;5091697;28;20293;-63
2023/08/16 07:11:24;;;;;;;3.80;2.40;;;;;;;24.32;77.61;100487.75;5093555;28;20187;-61
2023/08/16 07:13:50;;;;;;;4.50;3.30;;;;;;;24.31;77.58;100483.22;5093813;28;20877;-63
2023/08/16 07:16:17;;;;;;;4.00;2.83;;;;;;;24.31;77.70;100491.88;5090622;28;20485;-63
2023/08/16 07:18:42;;;;;;;3.33;2.73;;;;;;;24.30;78.04;100487.34;5092642;28;20222;-62
2023/08/16 07:21:08;;;;;;;4.77;3.00;;;;;;;24.31;77.64;100489.00;5103040;28;20458;-63
2023/08/16 07:23:34;;;;;;;5.10;3.53;;;;;;;24.31;77.76;100497.66;5109177;28;20247;-62
2023/08/16 07:25:59;;;;;;;3.80;2.80;;;;;;;24.33;78.07;100488.59;5102824;28;20269;-63
2023/08/16 07:28:25;;;;;;;3.10;2.50;;;;;;;24.32;77.87;100489.81;5109254;28;20253;-62
2023/08/16 07:30:54;;;;;;;4.30;3.03;;;;;;;24.31;77.67;100486.13;5101500;28;20315;-63
2023/08/16 07:33:20;;;;;;;3.40;2.60;;;;;;;24.31;78.10;100483.22;5099642;28;20960;-63
2023/08/16 07:35:47;;;;;;;3.97;2.90;;;;;;;24.30;77.71;100487.34;5110094;28;20420;-63
2023/08/16 07:38:12;;;;;;;6.93;3.00;;;;;;;24.31;77.98;100486.13;5106396;28;20435;-63
2023/08/16 07:40:37;;;;;;;4.20;3.00;;;;;;;24.31;77.72;100489.00;5109965;28;20761;-64
2023/08/16 07:43:03;;;;;;;6.13;3.23;;;;;;;24.32;77.84;100484.03;5099687;28;20689;-63
2023/08/16 07:45:28;;;;;;;4.07;2.77;;;;;;;24.32;77.88;100484.88;5088851;28;20253;-63
2023/08/16 07:47:54;;;;;;;3.80;2.77;;;;;;;24.32;77.71;100486.91;5091214;28;20210;-63
2023/08/16 07:50:19;;;;;;;3.80;2.90;;;;;;;24.33;77.60;100488.59;5093589;28;20205;-63
2023/08/16 07:52:45;;;;;;;3.30;2.80;;;;;;;24.34;77.86;100491.03;5109246;28;20165;-62
2023/08/16 07:55:11;;;;;;;3.57;2.67;;;;;;;24.33;77.62;100492.28;5109098;28;20188;-63
2023/08/16 07:57:36;;;;;;;3.57;2.60;;;;;;;24.35;77.54;100498.47;5089908;28;20261;-63
2023/08/16 08:00:04;;;;;;;4.80;2.90;;;;;;;24.35;77.54;100488.97;5100348;28;20266;-62
2023/08/16 08:02:31;;;;;;;4.67;3.23;;;;;;;24.34;77.85;100488.16;5085227;28;20590;-64
2023/08/16 08:05:01;;;;;;;5.13;3.00;;;;;;;24.35;77.76;100492.72;5088639;28;20429;-63
2023/08/16 08:07:28;;;;;;;4.53;2.83;;;;;;;24.34;78.42;100491.03;5070686;28;20463;-63
2023/08/16 08:09:55;;;;;;;3.80;2.73;;;;;;;24.34;78.22;100491.03;5090772;28;20454;-63
2023/08/16 08:12:21;;;;;;;4.73;2.90;;;;;;;24.33;78.28;100500.94;5088648;28;20884;-64
2023/08/16 08:14:46;;;;;;;5.53;3.70;;;;;;;24.33;78.24;100492.28;5091284;28;20435;-63
2023/08/16 08:17:12;;;;;;;4.00;2.83;;;;;;;24.33;78.04;100492.28;5049489;28;1167711;-63
2023/08/16 08:19:37;;;;;;;4.73;3.20;;;;;;;24.32;78.10;100496.41;5088810;28;20954;-64
2023/08/16 08:22:03;;;;;;;6.53;3.70;;;;;;;24.33;78.11;100506.72;5101795;28;20288;-63
2023/08/16 08:24:28;;;;;;;4.10;3.30;;;;;;;24.31;77.86;100500.53;5083313;28;20277;-63
2023/08/16 08:26:56;;;;;;;10.50;3.43;;;;;;;24.33;78.02;100500.13;5088243;28;20178;-62
2023/08/16 08:29:25;;;;;;;5.77;3.30;;;;;;;24.35;78.35;100506.31;5090420;28;20189;-64
2023/08/16 08:31:53;;;;;;;8.17;3.47;;;;;;;24.35;78.58;100507.13;5089187;28;21146;-63
2023/08/16 08:34:19;;;;;;;5.00;3.80;;;;;;;24.35;78.85;100501.38;5070803;28;21227;-63
2023/08/16 08:36:45;;;;;;;6.43;3.67;;;;;;;24.39;79.29;100502.16;5089139;28;20405;-62
2023/08/16 08:39:10;;;;;;;6.83;3.90;;;;;;;24.39;80.24;100502.16;5091456;28;20186;-62
2023/08/16 08:41:37;;;;;;;7.13;4.50;;;;;;;24.40;79.47;100497.22;5089519;28;20181;-63
2023/08/16 08:44:03;;;;;;;8.47;3.80;;;;;;;24.39;79.51;100501.34;5102086;28;20222;-63
2023/08/16 08:46:30;;;;;;;12.50;4.03;;;;;;;24.41;79.74;100505.47;5105317;28;20784;-66
2023/08/16 08:48:58;;;;;;;11.73;3.30;;;;;;;24.42;79.65;100507.09;5109699;28;20562;-65
2023/08/16 08:51:23;;;;;;;5.43;3.43;;;;;;;24.43;79.82;100513.72;5075089;28;20503;-66
2023/08/16 08:53:49;;;;;;;10.27;4.50;;;;;;;24.43;79.87;100507.94;5109587;28;20423;-65
2023/08/16 08:56:16;;;;;;;8.60;4.70;;;;;;;24.43;80.36;100514.53;5093823;28;20195;-64
2023/08/16 08:58:41;;;;;;;5.77;4.20;;;;;;;24.44;80.06;100515.34;5071436;28;20159;-64
2023/08/16 09:01:07;;;;;;;8.80;4.20;;;;;;;24.43;79.77;100519.50;5071008;28;20503;-62
2023/08/16 09:03:33;;;;;;;5.50;3.77;;;;;;;24.43;79.99;100514.53;5071390;28;21990;-64
2023/08/16 09:05:58;;;;;;;5.53;3.83;;;;;;;24.43;80.06;100510.84;5089781;28;20436;-64
2023/08/16 09:08:24;;;;;;;4.97;3.43;;;;;;;24.42;80.27;100518.66;5087577;28;20198;-63
2023/08/16 09:10:51;;;;;;;6.53;4.00;;;;;;;24.41;80.30;100516.19;5071615;28;20186;-64
2023/08/16 09:13:16;;;;;;;7.27;4.30;;;;;;;24.43;80.83;100513.72;5087429;28;20255;-64
2023/08/16 09:15:42;;;;;;;5.33;3.67;;;;;;;24.43;80.85;100514.53;5068854;28;20466;-63
2023/08/16 09:18:12;;;;;;;6.13;4.50;;;;;;;24.42;80.37;100520.72;5087418;28;20229;-62
2023/08/16 09:20:38;;;;;;;5.90;4.00;;;;;;;24.42;79.96;100527.31;5097503;28;20197;-63
2023/08/16 09:23:03;;;;;;;8.10;3.50;;;;;;;24.41;80.14;100517.00;5098844;28;20783;-63
2023/08/16 09:25:29;;;;;;;5.20;3.90;;;;;;;24.42;80.50;100523.59;5088950;28;20190;-64
2023/08/16 09:27:55;;;;;;;5.67;3.50;;;;;;;24.41;80.17;100511.25;5088579;28;20214;-62
2023/08/16 09:30:20;;;;;;;10.23;4.43;;;;;;;24.42;80.55;100510.00;5088122;28;20213;-63
2023/08/16 09:32:46;;;;;;;8.20;4.47;;;;;;;24.43;80.74;100500.09;5093022;27;20174;-63
2023/08/16 09:35:12;;;;;;;5.70;4.07;;;;;;;24.45;80.69;100505.44;5104778;28;20271;-63
2023/08/16 09:37:39;;;;;;;6.97;4.67;;;;;;;24.43;80.74;100505.88;5107395;28;20549;-63
2023/08/16 09:40:06;;;;;;;6.70;4.30;;;;;;;24.43;80.11;100505.88;5101504;28;20432;-63
2023/08/16 09:42:34;;;;;;;5.20;4.30;;;;;;;24.44;80.83;100498.84;5087089;28;20523;-63
2023/08/16 09:45:00;;;;;;;6.93;4.00;;;;;;;24.44;80.70;100493.06;5070096;28;20898;-63
2023/08/16 09:47:28;;;;;;;5.20;4.33;;;;;;;24.44;80.65;100492.25;5071890;28;20487;-63
2023/08/16 09:49:54;;;;;;;6.00;4.57;;;;;;;24.44;81.46;100487.28;5054901;28;20194;-63
2023/08/16 09:52:19;;;;;;;6.57;4.70;;;;;;;24.44;80.57;100487.28;5100050;28;20451;-63
2023/08/16 09:54:48;;;;;;;8.10;4.70;;;;;;;24.45;80.67;100488.97;5097536;28;20424;-63
2023/08/16 09:57:14;;;;;;;6.27;5.03;;;;;;;24.45;80.75;100488.13;5078137;28;20178;-63
2023/08/16 09:59:39;;;;;;;7.70;4.40;;;;;;;24.44;80.33;100477.84;5087819;28;20417;-64
2023/08/16 10:02:05;;;;;;;5.53;4.00;;;;;;;24.45;80.59;100483.19;5071594;28;20194;-63
2023/08/16 10:04:31;;;;;;;10.87;4.67;;;;;;;24.46;80.55;100484.00;5052087;28;20175;-64
2023/08/16 10:06:57;;;;;;;8.20;5.10;;;;;;;24.46;80.62;100484.84;5089200;28;21226;-64
2023/08/16 10:09:22;;;;;;;10.30;4.70;;;;;;;24.48;80.99;100473.69;5086446;28;20707;-62
2023/08/16 10:11:49;;;;;;;7.47;4.20;;;;;;;24.48;81.00;100470.78;5086387;28;20191;-64
2023/08/16 10:14:14;;;;;;;8.67;4.27;;;;;;;24.49;81.62;100465.84;5089377;28;20582;-64
2023/08/16 10:16:40;;;;;;;7.83;4.17;;;;;;;24.49;80.83;100468.75;5097991;28;20472;-63
2023/08/16 10:19:06;;;;;;;6.90;4.60;;;;;;;24.46;80.53;100467.53;5077830;28;20583;-62
2023/08/16 10:21:34;;;;;;;7.27;3.90;;;;;;;24.46;81.24;100467.53;5091342;28;20186;-62
2023/08/16 10:23:59;;;;;;;10.03;4.70;;;;;;;24.48;81.16;100472.88;5073347;28;20523;-62
2023/08/16 10:26:25;;;;;;;10.80;4.53;;;;;;;24.46;80.72;100458.84;5069056;28;20419;-62
2023/08/16 10:28:52;;;;;;;8.20;4.50;;;;;;;24.47;80.59;100460.50;5056045;28;20212;-63
2023/08/16 10:31:20;;;;;;;5.70;4.47;;;;;;;24.47;80.63;100457.63;5103087;28;20276;-63
2023/08/16 10:33:47;;;;;;;4.43;3.97;;;;;;;24.47;80.72;100451.84;5077137;28;20506;-61
2023/08/16 10:36:13;;;;;;;6.70;4.47;;;;;;;24.47;80.76;100451.84;5107930;28;20422;-62
2023/08/16 10:38:41;;;;;;;7.63;4.50;;;;;;;24.47;81.09;100451.00;5089143;28;20414;-63
2023/08/16 10:41:14;;;;;;;7.03;4.50;;;;;;;24.47;80.69;100440.28;5099152;28;20436;-62
2023/08/16 10:43:45;;;;;;;8.30;5.50;;;;;;;24.48;80.85;100444.81;5096547;28;20951;-62
2023/08/16 10:46:11;;;;;;;5.40;4.53;;;;;;;24.47;80.88;100436.56;5081362;28;20439;-62
2023/08/16 10:48:36;;;;;;;4.93;3.60;;;;;;;24.47;80.90;100443.19;5090403;28;20480;-62
2023/08/16 10:51:07;;;;;;;5.40;3.40;;;;;;;24.47;80.53;100436.56;5098064;28;20182;-62
2023/08/16 10:53:37;;;;;;;10.20;4.80;;;;;;;24.47;80.77;100437.41;5085566;28;20282;-63
2023/08/16 10:56:08;;;;;;;8.47;4.33;;;;;;;24.48;80.97;100432.47;5089059;28;20419;-63
2023/08/16 10:58:50;;;;;;;7.43;4.43;;;;;;;24.48;80.76;100435.34;5084714;28;20431;-62
2023/08/16 11:01:18;;;;;;;5.90;4.47;;;;;;;24.49;81.02;100425.44;5088339;28;20426;-62
2023/08/16 11:03:44;;;;;;;5.53;4.13;;;;;;;24.49;81.24;100426.25;5106140;28;20480;-63
2023/08/16 11:06:10;;;;;;;5.40;4.03;;;;;;;24.49;80.94;100419.66;5103303;28;21101;-62
2023/08/16 11:08:43;;;;;;;5.20;3.90;;;;;;;24.49;80.94;100422.56;5071062;28;20202;-62
2023/08/16 11:11:09;;;;;;;8.00;4.73;;;;;;;24.48;81.33;100415.94;5089029;28;20416;-62
2023/08/16 11:13:35;;;;;;;7.30;4.77;;;;;;;24.48;81.34;100413.06;5106643;28;20459;-63
2023/08/16 11:16:00;;;;;;;6.43;4.00;;;;;;;24.49;81.26;100414.69;5109927;28;20423;-62
2023/08/16 11:18:29;;;;;;;7.03;4.47;;;;;;;24.50;81.24;100410.59;5088639;28;20276;-63